Startpagina
METAR-TAF:

METAR-TAF

Vliegvelden :

Kunming, China

Internationale luchthaven Kunming Changshui

breedte: 25-01N, lengte: 102-41E, hoogte: 1892 m

Actueel weer

Dit bericht is 55 minuten geleden gemaakt, om 12:00 UTC
Wind 12 kt uit het noordnoordoosten
Temperatuur 4°C
Vochtigheid 100%
Druk 1023 hPa
Zicht: 0900 m
Gebroken wolken op 200 ft
Geheel bewolkt op 3000 ft
mist

METAR: ZPPP 221200Z 03006MPS 0900 R04/1900D R03/1600D FG BKN002 OVC030 04/04 Q1023 NOSIG

Tijdstip: 20:55 (12:55 UTC)

Verwachting

Dit bericht is 5 uur en het 48 minuten geleden gemaakt, om 07:07 UTC
Verwachting geldig van 22 om 12 UTC tot 23 om 12 UTC
Wind 8 kt uit het noordoosten
Zicht: 1200 m
Gebroken wolken op 200 ft
Geheel bewolkt op 2000 ft
nevel

TAF: ZPPP 220707Z 2212/2312 04004MPS 1200 BR BKN002 OVC020 TX05/2308Z TN03/2222Z

Waarnemingen en weersverwachtingen van meer dan 4000 vliegvelden (METAR en TAF).

De beschikbare stations zijn de gele en rode punten op de kaart.

Ga met uw muis naar het station om de naam te zien.

Klik dan om waarnemingen en weersverwachtingen te zien.

kaart wijzigen: klik op de groene knoppen met een zwart kruis om in te zoomen, op de groene knop met een streepje om uit te zoomen of op de groene pijlen voor aangrenzende kaarten.


METAR-TAF: